createdAt,value
2018-08-30T00:01:14.164Z,5.17
2018-08-30T00:03:42.383Z,5.90
2018-08-30T00:06:10.557Z,8.00
2018-08-30T00:08:38.706Z,8.43
2018-08-30T00:11:06.866Z,5.43
2018-08-30T00:13:35.018Z,5.13
2018-08-30T00:16:03.155Z,5.70
2018-08-30T00:18:31.292Z,4.83
2018-08-30T00:20:59.428Z,5.67
2018-08-30T00:23:27.609Z,5.03
2018-08-30T00:25:55.771Z,4.60
2018-08-30T00:28:23.902Z,5.47
2018-08-30T00:30:52.681Z,5.07
2018-08-30T00:33:20.828Z,6.83
2018-08-30T00:35:48.981Z,4.83
2018-08-30T00:38:17.138Z,7.13
2018-08-30T00:40:45.295Z,5.07
2018-08-30T00:43:13.402Z,7.13
2018-08-30T00:45:41.540Z,5.33
2018-08-30T00:48:09.677Z,6.40
2018-08-30T00:50:37.857Z,4.87
2018-08-30T00:53:06.001Z,5.10
2018-08-30T00:55:34.157Z,8.43
2018-08-30T00:58:02.249Z,8.43
2018-08-30T01:00:30.388Z,5.43
2018-08-30T01:02:58.505Z,3.63
2018-08-30T01:05:26.638Z,5.10
2018-08-30T01:07:54.794Z,4.00
2018-08-30T01:10:22.930Z,3.33
2018-08-30T01:12:55.850Z,7.00
2018-08-30T01:15:26.118Z,6.07
2018-08-30T01:17:54.509Z,6.93
2018-08-30T01:20:23.086Z,4.07
2018-08-30T01:22:51.576Z,4.63
2018-08-30T01:25:19.804Z,7.40
2018-08-30T01:27:48.131Z,7.03
2018-08-30T01:30:16.330Z,5.93
2018-08-30T01:32:44.581Z,4.10
2018-08-30T01:35:12.706Z,4.77
2018-08-30T01:37:40.800Z,5.27
2018-08-30T01:40:08.933Z,4.30
2018-08-30T01:42:37.087Z,4.70
2018-08-30T01:45:05.254Z,5.63
2018-08-30T01:47:33.408Z,6.27
2018-08-30T01:50:01.646Z,6.27
2018-08-30T01:52:29.843Z,4.23
2018-08-30T01:54:58.022Z,4.73
2018-08-30T01:57:26.200Z,5.70
2018-08-30T01:59:54.344Z,4.90
2018-08-30T02:02:22.496Z,4.73
2018-08-30T02:04:50.671Z,6.17
2018-08-30T02:07:18.804Z,5.37
2018-08-30T02:09:46.994Z,5.23
2018-08-30T02:12:15.130Z,7.47
2018-08-30T02:14:43.346Z,5.30
2018-08-30T02:17:11.498Z,5.17
2018-08-30T02:19:39.717Z,4.90
2018-08-30T02:22:07.951Z,4.90
2018-08-30T02:24:36.103Z,5.77
2018-08-30T02:27:04.289Z,6.47
2018-08-30T02:29:32.448Z,4.53
2018-08-30T02:32:00.568Z,8.27
2018-08-30T02:34:28.764Z,5.03
2018-08-30T02:36:56.972Z,5.57
2018-08-30T02:39:25.133Z,4.47
2018-08-30T02:41:53.322Z,5.57
2018-08-30T02:44:21.496Z,4.40
2018-08-30T02:46:49.660Z,3.40
2018-08-30T02:49:17.823Z,5.20
2018-08-30T02:51:46.072Z,7.13
2018-08-30T02:54:14.221Z,4.50
2018-08-30T02:56:42.402Z,4.80
2018-08-30T02:59:10.621Z,6.87
2018-08-30T03:01:38.754Z,6.43
2018-08-30T03:04:06.912Z,5.23
2018-08-30T03:06:35.094Z,7.17
2018-08-30T03:09:04.852Z,9.53
2018-08-30T03:11:33.010Z,9.07
2018-08-30T03:14:01.256Z,5.43
2018-08-30T03:16:29.402Z,6.07
2018-08-30T03:18:57.583Z,5.93
2018-08-30T03:21:25.738Z,6.53
2018-08-30T03:23:53.980Z,5.30
2018-08-30T03:26:22.157Z,4.97
2018-08-30T03:28:50.348Z,5.60
2018-08-30T03:31:18.532Z,6.13
2018-08-30T03:33:46.744Z,7.87
2018-08-30T03:36:14.888Z,9.13
2018-08-30T03:38:43.110Z,7.23
2018-08-30T03:41:11.352Z,6.57
2018-08-30T03:43:39.529Z,8.60
2018-08-30T03:46:07.720Z,8.63
2018-08-30T03:48:35.860Z,7.67
2018-08-30T03:51:04.050Z,5.37
2018-08-30T03:53:32.162Z,7.87
2018-08-30T03:56:00.386Z,8.27
2018-08-30T03:58:28.538Z,6.23
2018-08-30T04:00:56.690Z,5.57
2018-08-30T04:03:24.894Z,6.80
2018-08-30T04:05:53.067Z,7.00
2018-08-30T04:08:21.190Z,7.60
2018-08-30T04:10:49.364Z,6.00
2018-08-30T04:13:17.519Z,7.97
2018-08-30T04:15:45.720Z,8.77
2018-08-30T04:18:13.894Z,5.90
2018-08-30T04:20:42.080Z,5.87
2018-08-30T04:23:10.278Z,5.37
2018-08-30T04:25:38.490Z,6.03
2018-08-30T04:28:06.619Z,6.43
2018-08-30T04:30:34.791Z,8.13
2018-08-30T04:33:02.961Z,5.57
2018-08-30T04:35:31.150Z,6.33
2018-08-30T04:37:59.344Z,6.57
2018-08-30T04:40:27.593Z,5.47
2018-08-30T04:42:55.748Z,6.27
2018-08-30T04:45:23.912Z,7.67
2018-08-30T04:47:52.114Z,6.07
2018-08-30T04:50:20.308Z,6.70
2018-08-30T04:52:48.488Z,5.73
2018-08-30T04:55:16.763Z,5.33
2018-08-30T04:57:45.070Z,5.23
2018-08-30T05:00:13.418Z,6.97
2018-08-30T05:02:41.670Z,5.60
2018-08-30T05:05:09.895Z,4.80
2018-08-30T05:07:38.090Z,5.80
2018-08-30T05:10:06.446Z,6.53
2018-08-30T05:12:35.123Z,5.83
2018-08-30T05:15:03.373Z,5.93
2018-08-30T05:17:31.556Z,5.30
2018-08-30T05:19:59.796Z,5.33
2018-08-30T05:22:27.926Z,4.77
2018-08-30T05:24:56.156Z,5.10
2018-08-30T05:27:24.997Z,6.37
2018-08-30T05:29:53.597Z,5.60
2018-08-30T05:32:22.092Z,6.47
2018-08-30T05:34:50.374Z,5.90
2018-08-30T05:37:18.700Z,5.17
2018-08-30T05:39:46.869Z,5.83
2018-08-30T05:42:15.225Z,5.70
2018-08-30T05:44:43.403Z,6.77
2018-08-30T05:47:11.634Z,6.00
2018-08-30T05:49:39.841Z,4.83
2018-08-30T05:52:08.019Z,7.33
2018-08-30T05:54:36.238Z,8.07
2018-08-30T05:57:04.397Z,6.30
2018-08-30T05:59:33.374Z,5.33
2018-08-30T06:02:01.554Z,8.47
2018-08-30T06:04:29.725Z,5.60
2018-08-30T06:06:57.896Z,7.03
2018-08-30T06:09:26.090Z,6.60
2018-08-30T06:11:54.196Z,6.30
2018-08-30T06:14:22.310Z,6.40
2018-08-30T06:16:50.479Z,5.63
2018-08-30T06:19:18.604Z,6.90
2018-08-30T06:21:46.718Z,4.87
2018-08-30T06:24:14.884Z,4.60
2018-08-30T06:26:43.171Z,4.67
2018-08-30T06:29:11.767Z,5.37
2018-08-30T06:31:40.990Z,5.33
2018-08-30T06:34:09.175Z,5.63
2018-08-30T06:36:37.378Z,4.60
2018-08-30T06:39:06.412Z,4.77
2018-08-30T06:41:35.367Z,4.40
2018-08-30T06:44:03.565Z,5.03
2018-08-30T06:46:31.764Z,4.80
2018-08-30T06:49:00.074Z,5.53
2018-08-30T06:51:28.314Z,5.83
2018-08-30T06:53:56.412Z,4.67
2018-08-30T06:56:24.608Z,4.37
2018-08-30T06:58:52.788Z,7.50
2018-08-30T07:01:20.939Z,6.00
2018-08-30T07:03:49.157Z,5.37
2018-08-30T07:06:17.348Z,4.90
2018-08-30T07:08:45.532Z,4.57
2018-08-30T07:11:13.747Z,4.60
2018-08-30T07:13:41.961Z,5.00
2018-08-30T07:16:10.176Z,4.30
2018-08-30T07:18:38.382Z,3.90
2018-08-30T07:21:06.622Z,4.73
2018-08-30T07:23:34.820Z,4.03
2018-08-30T07:26:03.011Z,4.13
2018-08-30T07:28:31.278Z,5.13
2018-08-30T07:30:59.432Z,3.70
2018-08-30T07:33:27.621Z,4.37
2018-08-30T07:35:55.787Z,4.17
2018-08-30T07:38:24.008Z,5.27
2018-08-30T07:40:52.186Z,5.77
2018-08-30T07:43:20.354Z,4.37
2018-08-30T07:45:48.597Z,5.87
2018-08-30T07:48:16.755Z,5.37
2018-08-30T07:50:44.956Z,5.07
2018-08-30T07:53:13.074Z,4.80
2018-08-30T07:55:41.242Z,6.93
2018-08-30T07:58:09.506Z,4.53
2018-08-30T08:00:37.759Z,4.70
2018-08-30T08:03:05.974Z,4.27
2018-08-30T08:05:34.184Z,4.77
2018-08-30T08:08:02.376Z,4.63
2018-08-30T08:10:30.594Z,5.40
2018-08-30T08:12:58.758Z,4.23
2018-08-30T08:15:26.992Z,4.40
2018-08-30T08:17:55.180Z,3.67
2018-08-30T08:20:23.454Z,3.77
2018-08-30T08:22:51.629Z,4.80
2018-08-30T08:25:19.884Z,5.10
2018-08-30T08:27:48.039Z,4.33
2018-08-30T08:30:16.275Z,8.00
2018-08-30T08:32:44.467Z,5.00
2018-08-30T08:35:12.714Z,5.07
2018-08-30T08:37:40.949Z,5.20
2018-08-30T08:40:09.190Z,5.93
2018-08-30T08:42:37.363Z,6.00
2018-08-30T08:45:05.751Z,6.17
2018-08-30T08:47:33.981Z,5.13
2018-08-30T08:50:02.273Z,7.37
2018-08-30T08:52:30.552Z,5.07
2018-08-30T08:54:58.808Z,6.20
2018-08-30T08:57:27.193Z,5.40
2018-08-30T08:59:55.507Z,5.97
2018-08-30T09:02:23.730Z,4.97
2018-08-30T09:04:52.058Z,6.50
2018-08-30T09:07:20.404Z,6.37
2018-08-30T09:09:48.569Z,5.20
2018-08-30T09:12:16.764Z,7.17
2018-08-30T09:14:45.008Z,5.90
2018-08-30T09:17:13.304Z,4.53
2018-08-30T09:19:41.501Z,5.73
2018-08-30T09:22:15.931Z,5.23
2018-08-30T09:24:44.112Z,4.47
2018-08-30T09:27:12.460Z,4.83
2018-08-30T09:29:40.656Z,5.57
2018-08-30T09:32:09.232Z,6.10
2018-08-30T09:34:37.443Z,5.13
2018-08-30T09:37:05.666Z,4.93
2018-08-30T09:39:33.795Z,5.70
2018-08-30T09:42:02.008Z,6.37
2018-08-30T09:44:30.221Z,6.07
2018-08-30T09:46:58.461Z,6.53
2018-08-30T09:49:26.658Z,5.00
2018-08-30T09:51:54.904Z,6.77
2018-08-30T09:54:23.075Z,6.73
2018-08-30T09:56:51.340Z,5.03
2018-08-30T09:59:19.558Z,5.47
2018-08-30T10:01:50.887Z,4.53
2018-08-30T10:04:19.957Z,4.73
2018-08-30T10:06:48.203Z,4.40
2018-08-30T10:09:16.416Z,4.90
2018-08-30T10:11:44.718Z,5.73
2018-08-30T10:14:12.945Z,5.70
2018-08-30T10:16:41.155Z,4.93
2018-08-30T10:19:09.386Z,5.47
2018-08-30T10:21:37.719Z,5.97
2018-08-30T10:24:05.864Z,6.30
2018-08-30T10:26:34.077Z,6.50
2018-08-30T10:29:02.353Z,5.27
2018-08-30T10:31:30.971Z,5.97
2018-08-30T10:33:59.378Z,6.70
2018-08-30T10:36:27.536Z,5.50
2018-08-30T10:38:55.735Z,5.80
2018-08-30T10:41:23.945Z,5.97
2018-08-30T10:43:52.206Z,6.53
2018-08-30T10:46:21.354Z,6.07
2018-08-30T10:48:49.648Z,5.30
2018-08-30T10:51:17.834Z,5.53
2018-08-30T10:53:46.139Z,11.17
2018-08-30T10:56:14.480Z,4.93
2018-08-30T10:58:42.661Z,5.37
2018-08-30T11:01:10.857Z,7.70
2018-08-30T11:03:39.112Z,5.27
2018-08-30T11:06:07.340Z,4.30
2018-08-30T11:08:35.582Z,4.50
2018-08-30T11:11:03.851Z,4.00
2018-08-30T11:13:32.093Z,5.87
2018-08-30T11:16:00.351Z,5.53
2018-08-30T11:18:28.608Z,4.60
2018-08-30T11:20:56.869Z,3.83
2018-08-30T11:23:25.042Z,4.67
2018-08-30T11:25:53.258Z,4.00
2018-08-30T11:28:21.498Z,3.50
2018-08-30T11:30:49.708Z,4.63
2018-08-30T11:33:17.934Z,4.10
2018-08-30T11:35:46.129Z,5.33
2018-08-30T11:38:14.362Z,5.10
2018-08-30T11:40:42.635Z,6.30
2018-08-30T11:43:10.888Z,4.23
2018-08-30T11:45:39.082Z,4.83
2018-08-30T11:48:07.270Z,5.20
2018-08-30T11:50:35.504Z,3.77
2018-08-30T11:53:03.734Z,4.13
2018-08-30T11:55:32.112Z,4.97
2018-08-30T11:58:00.416Z,3.70
2018-08-30T12:00:28.635Z,4.70
2018-08-30T12:02:56.966Z,3.80
2018-08-30T12:05:25.128Z,3.97
2018-08-30T12:07:53.393Z,4.70
2018-08-30T12:10:21.682Z,4.87
2018-08-30T12:12:49.899Z,4.20
2018-08-30T12:15:18.123Z,4.27
2018-08-30T12:17:46.279Z,5.43
2018-08-30T12:20:14.490Z,4.30
2018-08-30T12:22:42.726Z,5.10
2018-08-30T12:25:10.900Z,4.03
2018-08-30T12:27:39.864Z,3.43
2018-08-30T12:30:08.098Z,4.47
2018-08-30T12:32:36.359Z,3.43
2018-08-30T12:35:04.666Z,4.70
2018-08-30T12:37:32.766Z,3.80
2018-08-30T12:40:01.104Z,3.77
2018-08-30T12:42:29.211Z,4.17
2018-08-30T12:44:57.506Z,4.70
2018-08-30T12:47:25.673Z,4.03
2018-08-30T12:49:53.770Z,4.20
2018-08-30T12:52:22.013Z,5.40
2018-08-30T12:54:50.276Z,4.17
2018-08-30T12:57:18.431Z,3.73
2018-08-30T12:59:46.699Z,4.17
2018-08-30T13:02:14.859Z,4.80
2018-08-30T13:04:43.240Z,4.00
2018-08-30T13:07:11.492Z,4.50
2018-08-30T13:09:39.701Z,4.10
2018-08-30T13:12:08.197Z,3.73
2018-08-30T13:14:36.025Z,4.17
2018-08-30T13:17:04.138Z,5.37
2018-08-30T13:19:32.798Z,3.83
2018-08-30T13:22:00.918Z,3.70
2018-08-30T13:24:29.036Z,4.67
2018-08-30T13:26:57.262Z,4.47
2018-08-30T13:29:25.349Z,4.30
2018-08-30T13:31:53.698Z,3.63
2018-08-30T13:34:22.998Z,6.77
2018-08-30T13:36:51.348Z,4.73
2018-08-30T13:39:19.339Z,4.03
2018-08-30T13:41:47.518Z,4.87
2018-08-30T13:44:15.529Z,5.53
2018-08-30T13:46:44.456Z,4.57
2018-08-30T13:49:12.672Z,4.87
2018-08-30T13:51:40.882Z,5.17
2018-08-30T13:54:09.086Z,5.10
2018-08-30T13:56:37.274Z,5.93
2018-08-30T13:59:05.476Z,4.63
2018-08-30T14:01:33.468Z,6.47
2018-08-30T14:04:01.786Z,5.63
2018-08-30T14:06:29.686Z,7.43
2018-08-30T14:08:58.009Z,6.47
2018-08-30T14:11:26.277Z,6.07
2018-08-30T14:13:54.585Z,6.10
2018-08-30T14:16:22.464Z,5.97
2018-08-30T14:18:50.894Z,6.80
2018-08-30T14:21:19.079Z,5.33
2018-08-30T14:23:47.300Z,4.57
2018-08-30T14:26:15.464Z,5.67
2018-08-30T14:28:43.713Z,6.10
2018-08-30T14:31:12.442Z,8.57
2018-08-30T14:33:40.616Z,7.23
2018-08-30T14:36:08.813Z,7.10
2018-08-30T14:38:36.943Z,7.43
2018-08-30T14:41:05.756Z,7.83
2018-08-30T14:43:33.838Z,8.27
2018-08-30T14:46:02.138Z,7.97
2018-08-30T14:48:30.992Z,8.90
2018-08-30T14:50:59.224Z,7.70
2018-08-30T14:53:27.616Z,7.23
2018-08-30T14:55:55.688Z,7.73
2018-08-30T14:58:23.915Z,10.23
2018-08-30T15:00:52.088Z,8.27
2018-08-30T15:03:20.355Z,9.50
2018-08-30T15:05:50.424Z,9.17
2018-08-30T15:08:18.466Z,8.73
2018-08-30T15:10:46.674Z,8.13
2018-08-30T15:13:15.030Z,8.37
2018-08-30T15:15:43.248Z,10.43
2018-08-30T15:18:11.602Z,10.10
2018-08-30T15:20:39.863Z,10.07
2018-08-30T15:23:08.727Z,11.80
2018-08-30T15:25:36.853Z,9.87
2018-08-30T15:28:05.368Z,11.43
2018-08-30T15:30:33.652Z,13.17
2018-08-30T15:33:01.902Z,9.97
2018-08-30T15:35:30.225Z,9.30
2018-08-30T15:37:58.448Z,10.80
2018-08-30T15:40:26.895Z,10.07
2018-08-30T15:42:55.926Z,9.77
2018-08-30T15:45:24.223Z,12.00
2018-08-30T15:47:52.585Z,12.13
2018-08-30T15:50:20.882Z,11.40
2018-08-30T15:52:49.183Z,11.83
2018-08-30T15:55:17.434Z,10.53
2018-08-30T15:57:45.880Z,10.63
2018-08-30T16:00:15.664Z,11.40
2018-08-30T16:02:44.176Z,10.77
2018-08-30T16:05:12.555Z,9.87
2018-08-30T16:07:41.087Z,10.27
2018-08-30T16:10:09.326Z,10.57
2018-08-30T16:12:37.592Z,9.30
2018-08-30T16:15:05.926Z,10.63
2018-08-30T16:17:35.175Z,9.37
2018-08-30T16:20:03.470Z,11.10
2018-08-30T16:23:38.325Z,9.10
2018-08-30T16:26:06.637Z,8.97
2018-08-30T16:28:35.551Z,9.53
2018-08-30T16:31:03.893Z,8.77
2018-08-30T16:33:32.111Z,9.10
2018-08-30T16:36:00.304Z,10.07
2018-08-30T16:38:28.591Z,10.67
2018-08-30T16:40:56.836Z,9.97
2018-08-30T16:43:25.009Z,8.33
2018-08-30T16:45:54.499Z,11.50
2018-08-30T16:48:22.713Z,11.17
2018-08-30T16:50:50.977Z,9.13
2018-08-30T16:53:19.309Z,10.13
2018-08-30T16:55:47.457Z,10.97
2018-08-30T16:58:15.646Z,9.80
2018-08-30T17:00:43.906Z,10.60
2018-08-30T17:03:12.216Z,10.87
2018-08-30T17:05:40.600Z,11.17
2018-08-30T17:08:09.034Z,10.47
2018-08-30T17:10:37.251Z,9.73
2018-08-30T17:13:05.780Z,8.90
2018-08-30T17:15:33.986Z,11.10
2018-08-30T17:18:05.365Z,10.67
2018-08-30T17:20:34.870Z,10.07
2018-08-30T17:23:03.237Z,9.17
2018-08-30T17:25:31.934Z,9.67
2018-08-30T17:28:01.561Z,11.43
2018-08-30T17:30:29.844Z,8.63
2018-08-30T17:32:58.230Z,11.60
2018-08-30T17:35:27.089Z,11.63
2018-08-30T17:37:55.471Z,9.40
2018-08-30T17:40:23.729Z,10.50
2018-08-30T17:42:52.422Z,10.03
2018-08-30T17:45:21.106Z,11.03
2018-08-30T17:47:49.346Z,10.07
2018-08-30T17:50:18.220Z,8.93
2018-08-30T17:52:46.639Z,11.60
2018-08-30T17:55:19.002Z,10.10
2018-08-30T17:57:47.163Z,9.57
2018-08-30T18:00:15.397Z,10.63
2018-08-30T18:02:44.673Z,11.03
2018-08-30T18:05:13.504Z,11.20
2018-08-30T18:07:41.835Z,9.03
2018-08-30T18:10:10.146Z,8.17
2018-08-30T18:12:38.999Z,9.73
2018-08-30T18:15:08.034Z,8.30
2018-08-30T18:17:36.270Z,7.20
2018-08-30T18:20:04.712Z,8.93
2018-08-30T18:22:32.960Z,8.90
2018-08-30T18:25:01.647Z,8.60
2018-08-30T18:27:30.050Z,7.40
2018-08-30T18:29:58.479Z,8.70
2018-08-30T18:32:26.799Z,6.87
2018-08-30T18:34:55.226Z,7.27
2018-08-30T18:37:23.688Z,7.73
2018-08-30T18:39:52.109Z,7.80
2018-08-30T18:42:30.237Z,8.67
2018-08-30T18:44:58.484Z,7.43
2018-08-30T18:47:26.686Z,6.37
2018-08-30T18:49:56.119Z,7.73
2018-08-30T18:52:24.344Z,6.80
2018-08-30T18:54:53.132Z,7.83
2018-08-30T18:57:21.283Z,7.37
2018-08-30T18:59:49.590Z,6.00
2018-08-30T19:02:18.533Z,7.50
2018-08-30T19:04:46.698Z,7.67
2018-08-30T19:07:15.401Z,8.63
2018-08-30T19:09:43.627Z,6.40
2018-08-30T19:12:11.843Z,8.17
2018-08-30T19:14:40.023Z,7.47
2018-08-30T19:17:13.584Z,12.40
2018-08-30T19:19:41.754Z,8.90
2018-08-30T19:22:09.995Z,7.97
2018-08-30T19:24:43.490Z,7.90
2018-08-30T19:27:11.660Z,7.03
2018-08-30T19:29:45.328Z,8.27
2018-08-30T19:32:13.502Z,8.23
2018-08-30T19:34:41.748Z,7.30
2018-08-30T19:37:09.959Z,8.20
2018-08-30T19:39:38.153Z,7.43
2018-08-30T19:42:06.393Z,8.10
2018-08-30T19:44:34.673Z,7.93
2018-08-30T19:47:03.015Z,8.63
2018-08-30T19:49:31.182Z,9.80
2018-08-30T19:51:59.423Z,8.27
2018-08-30T19:54:27.650Z,8.93
2018-08-30T19:56:55.852Z,10.00
2018-08-30T19:59:24.054Z,8.97
2018-08-30T20:01:52.192Z,8.00
2018-08-30T20:04:20.409Z,8.87
2018-08-30T20:06:48.592Z,10.83
2018-08-30T20:09:16.893Z,9.83
2018-08-30T20:11:45.063Z,10.10
2018-08-30T20:14:13.675Z,8.87
2018-08-30T20:16:42.508Z,9.87
2018-08-30T20:19:11.435Z,9.97
2018-08-30T20:21:40.326Z,10.20
2018-08-30T20:24:08.568Z,11.77
2018-08-30T20:26:36.802Z,11.53
2018-08-30T20:29:05.176Z,9.80
2018-08-30T20:31:33.363Z,9.43
2018-08-30T20:34:01.631Z,9.80
2018-08-30T20:36:29.843Z,10.77
2018-08-30T20:38:58.091Z,10.10
2018-08-30T20:41:26.291Z,10.17
2018-08-30T20:43:54.505Z,9.97
2018-08-30T20:46:22.703Z,9.40
2018-08-30T20:48:50.953Z,9.20
2018-08-30T20:51:19.195Z,13.20
2018-08-30T20:53:47.410Z,11.47
2018-08-30T20:56:15.715Z,10.67
2018-08-30T20:58:43.936Z,12.63
2018-08-30T21:01:12.080Z,13.00
2018-08-30T21:03:40.310Z,12.10
2018-08-30T21:06:08.537Z,11.60
2018-08-30T21:08:36.756Z,11.97
2018-08-30T21:11:05.195Z,10.73
2018-08-30T21:13:33.387Z,12.57
2018-08-30T21:16:01.610Z,11.00
2018-08-30T21:18:29.952Z,10.83
2018-08-30T21:20:58.118Z,11.20
2018-08-30T21:23:26.333Z,11.10
2018-08-30T21:25:54.547Z,10.87
2018-08-30T21:28:22.743Z,12.93
2018-08-30T21:30:50.929Z,10.97
2018-08-30T21:33:19.207Z,9.87
2018-08-30T21:35:47.506Z,11.83
2018-08-30T21:38:15.774Z,11.63
2018-08-30T21:40:44.029Z,13.33
2018-08-30T21:43:12.240Z,14.03
2018-08-30T21:45:40.453Z,11.30
2018-08-30T21:48:08.867Z,13.50
2018-08-30T21:50:37.036Z,14.60
2018-08-30T21:53:05.312Z,11.97
2018-08-30T21:55:33.543Z,14.20
2018-08-30T21:58:01.745Z,10.43
2018-08-30T22:00:30.076Z,14.47
2018-08-30T22:02:58.430Z,13.80
2018-08-30T22:05:26.767Z,12.83
2018-08-30T22:07:55.006Z,14.93
2018-08-30T22:10:23.215Z,13.70
2018-08-30T22:12:51.512Z,12.37
2018-08-30T22:15:19.752Z,13.13
2018-08-30T22:17:48.068Z,14.37
2018-08-30T22:20:16.375Z,12.20
2018-08-30T22:22:44.623Z,13.43
2018-08-30T22:25:12.823Z,11.97
2018-08-30T22:27:41.065Z,11.20
2018-08-30T22:30:10.317Z,11.83
2018-08-30T22:32:38.639Z,10.63
2018-08-30T22:35:06.939Z,12.10
2018-08-30T22:37:35.556Z,11.27
2018-08-30T22:40:03.861Z,12.50
2018-08-30T22:42:32.235Z,13.93
2018-08-30T22:45:00.433Z,13.43
2018-08-30T22:47:28.753Z,11.67
2018-08-30T22:49:57.085Z,14.00
2018-08-30T22:52:25.373Z,11.50
2018-08-30T22:54:53.931Z,11.70
2018-08-30T22:57:22.161Z,13.77
2018-08-30T22:59:50.377Z,12.80
2018-08-30T23:02:18.713Z,10.90
2018-08-30T23:04:46.999Z,12.37
2018-08-30T23:07:15.253Z,14.63
2018-08-30T23:09:43.537Z,11.67
2018-08-30T23:12:11.794Z,12.17
2018-08-30T23:14:40.065Z,12.63
2018-08-30T23:17:08.296Z,14.10
2018-08-30T23:19:36.737Z,13.57
2018-08-30T23:22:05.015Z,12.07
2018-08-30T23:24:33.296Z,14.47
2018-08-30T23:27:01.475Z,13.37
2018-08-30T23:29:29.741Z,11.10
2018-08-30T23:31:57.989Z,14.23
2018-08-30T23:34:26.291Z,13.10
2018-08-30T23:36:54.505Z,13.03
2018-08-30T23:39:22.766Z,12.30
2018-08-30T23:41:51.021Z,11.33
2018-08-30T23:44:19.228Z,12.77
2018-08-30T23:46:47.467Z,13.10
2018-08-30T23:49:15.690Z,11.77
2018-08-30T23:51:43.924Z,12.50
2018-08-30T23:54:12.168Z,13.83
2018-08-30T23:56:40.383Z,13.83
2018-08-30T23:59:13.923Z,14.73
